sensor_id;sensor_type;location;lat;lon;timestamp;P1;durP1;ratioP1;P2;durP2;ratioP2
67278;SDS011;54193;53.746;10.058;2023-03-21T00:00:57;44.10;;;14.38;;
67278;SDS011;54193;53.746;10.058;2023-03-21T00:03:44;43.83;;;13.95;;
67278;SDS011;54193;53.746;10.058;2023-03-21T00:06:31;39.63;;;12.90;;
67278;SDS011;54193;53.746;10.058;2023-03-21T00:09:16;46.28;;;14.95;;
67278;SDS011;54193;53.746;10.058;2023-03-21T00:12:02;44.75;;;14.77;;
67278;SDS011;54193;53.746;10.058;2023-03-21T00:14:54;44.10;;;14.57;;
67278;SDS011;54193;53.746;10.058;2023-03-21T00:17:40;44.33;;;14.73;;
67278;SDS011;54193;53.746;10.058;2023-03-21T00:20:29;43.13;;;14.70;;
67278;SDS011;54193;53.746;10.058;2023-03-21T00:23:18;42.30;;;14.13;;
67278;SDS011;54193;53.746;10.058;2023-03-21T00:26:04;44.90;;;13.93;;
67278;SDS011;54193;53.746;10.058;2023-03-21T00:28:50;42.45;;;13.45;;
67278;SDS011;54193;53.746;10.058;2023-03-21T00:31:35;44.67;;;15.30;;
67278;SDS011;54193;53.746;10.058;2023-03-21T00:34:21;39.40;;;13.70;;
67278;SDS011;54193;53.746;10.058;2023-03-21T00:37:07;45.47;;;15.00;;
67278;SDS011;54193;53.746;10.058;2023-03-21T00:39:53;43.72;;;14.70;;
67278;SDS011;54193;53.746;10.058;2023-03-21T00:42:39;43.50;;;14.45;;
67278;SDS011;54193;53.746;10.058;2023-03-21T00:45:25;48.60;;;14.73;;
67278;SDS011;54193;53.746;10.058;2023-03-21T00:48:10;42.75;;;13.82;;
67278;SDS011;54193;53.746;10.058;2023-03-21T00:50:57;41.97;;;14.38;;
67278;SDS011;54193;53.746;10.058;2023-03-21T00:53:44;47.17;;;14.97;;
67278;SDS011;54193;53.746;10.058;2023-03-21T00:56:31;45.00;;;14.65;;
67278;SDS011;54193;53.746;10.058;2023-03-21T00:59:17;46.42;;;15.73;;
67278;SDS011;54193;53.746;10.058;2023-03-21T01:02:03;45.50;;;14.70;;
67278;SDS011;54193;53.746;10.058;2023-03-21T01:04:52;48.50;;;15.80;;
67278;SDS011;54193;53.746;10.058;2023-03-21T01:07:38;50.25;;;15.55;;
67278;SDS011;54193;53.746;10.058;2023-03-21T01:10:24;42.60;;;13.88;;
67278;SDS011;54193;53.746;10.058;2023-03-21T01:13:10;46.38;;;15.55;;
67278;SDS011;54193;53.746;10.058;2023-03-21T01:15:57;45.08;;;15.50;;
67278;SDS011;54193;53.746;10.058;2023-03-21T01:18:43;51.90;;;15.35;;
67278;SDS011;54193;53.746;10.058;2023-03-21T01:21:29;49.47;;;16.33;;
67278;SDS011;54193;53.746;10.058;2023-03-21T01:24:16;51.38;;;16.50;;
67278;SDS011;54193;53.746;10.058;2023-03-21T01:27:01;51.03;;;15.68;;
67278;SDS011;54193;53.746;10.058;2023-03-21T01:29:47;50.47;;;15.97;;
67278;SDS011;54193;53.746;10.058;2023-03-21T01:32:33;52.10;;;16.10;;
67278;SDS011;54193;53.746;10.058;2023-03-21T01:35:18;52.83;;;16.10;;
67278;SDS011;54193;53.746;10.058;2023-03-21T01:38:04;51.03;;;15.60;;
67278;SDS011;54193;53.746;10.058;2023-03-21T01:40:50;52.70;;;16.38;;
67278;SDS011;54193;53.746;10.058;2023-03-21T01:43:36;52.92;;;15.10;;
67278;SDS011;54193;53.746;10.058;2023-03-21T01:52:11;60.30;;;18.67;;
67278;SDS011;54193;53.746;10.058;2023-03-21T01:55:01;58.92;;;17.95;;
67278;SDS011;54193;53.746;10.058;2023-03-21T01:57:49;53.27;;;15.77;;
67278;SDS011;54193;53.746;10.058;2023-03-21T02:00:38;59.05;;;17.98;;
67278;SDS011;54193;53.746;10.058;2023-03-21T02:03:25;58.05;;;16.70;;
67278;SDS011;54193;53.746;10.058;2023-03-21T02:06:13;55.97;;;17.52;;
67278;SDS011;54193;53.746;10.058;2023-03-21T02:09:05;57.45;;;18.10;;
67278;SDS011;54193;53.746;10.058;2023-03-21T02:11:55;57.85;;;16.45;;
67278;SDS011;54193;53.746;10.058;2023-03-21T02:14:41;61.88;;;17.70;;
67278;SDS011;54193;53.746;10.058;2023-03-21T02:17:34;59.97;;;17.77;;
67278;SDS011;54193;53.746;10.058;2023-03-21T02:39:09;63.80;;;17.65;;
67278;SDS011;54193;53.746;10.058;2023-03-21T02:45:21;59.67;;;18.40;;
67278;SDS011;54193;53.746;10.058;2023-03-21T02:48:11;59.63;;;17.87;;
67278;SDS011;54193;53.746;10.058;2023-03-21T02:50:59;59.72;;;17.92;;
67278;SDS011;54193;53.746;10.058;2023-03-21T02:53:48;67.63;;;19.70;;
67278;SDS011;54193;53.746;10.058;2023-03-21T02:56:37;69.57;;;18.80;;
67278;SDS011;54193;53.746;10.058;2023-03-21T02:59:24;62.55;;;18.52;;
67278;SDS011;54193;53.746;10.058;2023-03-21T03:02:12;70.03;;;19.70;;
67278;SDS011;54193;53.746;10.058;2023-03-21T03:04:59;65.85;;;18.67;;
67278;SDS011;54193;53.746;10.058;2023-03-21T03:07:56;61.67;;;18.02;;
67278;SDS011;54193;53.746;10.058;2023-03-21T03:10:57;66.60;;;19.27;;
67278;SDS011;54193;53.746;10.058;2023-03-21T03:16:43;62.13;;;18.20;;
67278;SDS011;54193;53.746;10.058;2023-03-21T03:19:48;67.20;;;19.75;;
67278;SDS011;54193;53.746;10.058;2023-03-21T03:22:47;66.32;;;19.45;;
67278;SDS011;54193;53.746;10.058;2023-03-21T03:25:36;69.43;;;20.13;;
67278;SDS011;54193;53.746;10.058;2023-03-21T03:28:29;67.75;;;19.05;;
67278;SDS011;54193;53.746;10.058;2023-03-21T03:31:22;67.90;;;20.92;;
67278;SDS011;54193;53.746;10.058;2023-03-21T03:34:15;70.32;;;19.73;;
67278;SDS011;54193;53.746;10.058;2023-03-21T03:37:10;65.70;;;19.13;;
67278;SDS011;54193;53.746;10.058;2023-03-21T03:40:07;66.13;;;20.33;;
67278;SDS011;54193;53.746;10.058;2023-03-21T03:43:23;68.65;;;19.00;;
67278;SDS011;54193;53.746;10.058;2023-03-21T03:46:16;71.07;;;19.93;;
67278;SDS011;54193;53.746;10.058;2023-03-21T03:49:12;64.85;;;20.58;;
67278;SDS011;54193;53.746;10.058;2023-03-21T03:52:11;71.63;;;21.60;;
67278;SDS011;54193;53.746;10.058;2023-03-21T03:55:01;68.03;;;19.67;;
67278;SDS011;54193;53.746;10.058;2023-03-21T03:57:47;71.78;;;20.38;;
67278;SDS011;54193;53.746;10.058;2023-03-21T04:00:34;70.95;;;20.95;;
67278;SDS011;54193;53.746;10.058;2023-03-21T04:03:19;71.10;;;20.35;;
67278;SDS011;54193;53.746;10.058;2023-03-21T04:06:06;72.18;;;20.95;;
67278;SDS011;54193;53.746;10.058;2023-03-21T04:08:52;79.47;;;21.70;;
67278;SDS011;54193;53.746;10.058;2023-03-21T04:11:37;83.28;;;23.55;;
67278;SDS011;54193;53.746;10.058;2023-03-21T04:14:23;75.70;;;21.23;;
67278;SDS011;54193;53.746;10.058;2023-03-21T04:17:10;76.05;;;22.77;;
67278;SDS011;54193;53.746;10.058;2023-03-21T04:19:55;77.30;;;22.05;;
67278;SDS011;54193;53.746;10.058;2023-03-21T04:22:41;76.10;;;22.07;;
67278;SDS011;54193;53.746;10.058;2023-03-21T04:25:27;73.57;;;20.95;;
67278;SDS011;54193;53.746;10.058;2023-03-21T04:28:12;76.50;;;22.10;;
67278;SDS011;54193;53.746;10.058;2023-03-21T04:30:58;73.30;;;21.40;;
67278;SDS011;54193;53.746;10.058;2023-03-21T04:33:44;66.35;;;18.67;;
67278;SDS011;54193;53.746;10.058;2023-03-21T04:36:32;66.07;;;19.38;;
67278;SDS011;54193;53.746;10.058;2023-03-21T04:39:23;76.10;;;20.90;;
67278;SDS011;54193;53.746;10.058;2023-03-21T04:42:09;74.33;;;22.07;;
67278;SDS011;54193;53.746;10.058;2023-03-21T04:44:54;73.10;;;21.17;;
67278;SDS011;54193;53.746;10.058;2023-03-21T04:47:40;67.78;;;20.33;;
67278;SDS011;54193;53.746;10.058;2023-03-21T04:50:26;68.33;;;19.90;;
67278;SDS011;54193;53.746;10.058;2023-03-21T04:53:12;68.00;;;20.63;;
67278;SDS011;54193;53.746;10.058;2023-03-21T04:55:58;63.42;;;19.42;;
67278;SDS011;54193;53.746;10.058;2023-03-21T04:58:45;71.47;;;19.88;;
67278;SDS011;54193;53.746;10.058;2023-03-21T05:01:30;65.60;;;19.58;;
67278;SDS011;54193;53.746;10.058;2023-03-21T05:04:16;70.78;;;20.90;;
67278;SDS011;54193;53.746;10.058;2023-03-21T05:07:02;71.07;;;21.58;;
67278;SDS011;54193;53.746;10.058;2023-03-21T05:09:48;66.17;;;19.50;;
67278;SDS011;54193;53.746;10.058;2023-03-21T05:12:33;70.43;;;20.45;;
67278;SDS011;54193;53.746;10.058;2023-03-21T05:15:19;68.63;;;20.00;;
67278;SDS011;54193;53.746;10.058;2023-03-21T05:18:04;74.57;;;21.37;;
67278;SDS011;54193;53.746;10.058;2023-03-21T05:20:55;69.68;;;19.90;;
67278;SDS011;54193;53.746;10.058;2023-03-21T05:23:41;71.13;;;20.08;;
67278;SDS011;54193;53.746;10.058;2023-03-21T05:26:27;74.05;;;21.35;;
67278;SDS011;54193;53.746;10.058;2023-03-21T05:29:13;74.25;;;21.48;;
67278;SDS011;54193;53.746;10.058;2023-03-21T05:31:59;72.25;;;20.73;;
67278;SDS011;54193;53.746;10.058;2023-03-21T05:34:46;70.13;;;21.40;;
67278;SDS011;54193;53.746;10.058;2023-03-21T05:37:31;71.47;;;21.20;;
67278;SDS011;54193;53.746;10.058;2023-03-21T05:40:17;76.32;;;21.85;;
67278;SDS011;54193;53.746;10.058;2023-03-21T05:43:03;74.30;;;21.80;;
67278;SDS011;54193;53.746;10.058;2023-03-21T05:45:48;75.80;;;20.57;;
67278;SDS011;54193;53.746;10.058;2023-03-21T05:48:34;68.05;;;20.33;;
67278;SDS011;54193;53.746;10.058;2023-03-21T05:51:20;76.97;;;22.13;;
67278;SDS011;54193;53.746;10.058;2023-03-21T05:54:06;65.85;;;19.48;;
67278;SDS011;54193;53.746;10.058;2023-03-21T05:56:52;70.05;;;20.02;;
67278;SDS011;54193;53.746;10.058;2023-03-21T05:59:37;72.90;;;21.30;;
67278;SDS011;54193;53.746;10.058;2023-03-21T06:02:23;70.68;;;20.33;;
67278;SDS011;54193;53.746;10.058;2023-03-21T06:05:09;80.07;;;23.07;;
67278;SDS011;54193;53.746;10.058;2023-03-21T06:07:54;66.90;;;20.20;;
67278;SDS011;54193;53.746;10.058;2023-03-21T06:10:40;73.28;;;21.45;;
67278;SDS011;54193;53.746;10.058;2023-03-21T06:13:26;73.37;;;21.60;;
67278;SDS011;54193;53.746;10.058;2023-03-21T06:16:12;71.85;;;21.70;;
67278;SDS011;54193;53.746;10.058;2023-03-21T06:18:57;62.33;;;20.38;;
67278;SDS011;54193;53.746;10.058;2023-03-21T06:21:43;75.53;;;21.80;;
67278;SDS011;54193;53.746;10.058;2023-03-21T06:24:28;83.40;;;23.63;;
67278;SDS011;54193;53.746;10.058;2023-03-21T06:27:14;77.82;;;21.65;;
67278;SDS011;54193;53.746;10.058;2023-03-21T06:30:00;79.53;;;23.45;;
67278;SDS011;54193;53.746;10.058;2023-03-21T06:32:46;71.30;;;20.27;;
67278;SDS011;54193;53.746;10.058;2023-03-21T06:35:31;85.60;;;23.52;;
67278;SDS011;54193;53.746;10.058;2023-03-21T06:38:17;58.70;;;17.17;;
67278;SDS011;54193;53.746;10.058;2023-03-21T06:41:03;68.00;;;20.70;;
67278;SDS011;54193;53.746;10.058;2023-03-21T06:43:50;86.53;;;24.20;;
67278;SDS011;54193;53.746;10.058;2023-03-21T06:46:36;67.68;;;18.95;;
67278;SDS011;54193;53.746;10.058;2023-03-21T06:49:22;80.03;;;23.70;;
67278;SDS011;54193;53.746;10.058;2023-03-21T06:52:08;72.10;;;22.10;;
67278;SDS011;54193;53.746;10.058;2023-03-21T06:54:54;81.43;;;23.48;;
67278;SDS011;54193;53.746;10.058;2023-03-21T06:57:40;77.53;;;23.73;;
67278;SDS011;54193;53.746;10.058;2023-03-21T07:00:26;76.60;;;22.97;;
67278;SDS011;54193;53.746;10.058;2023-03-21T07:03:12;68.70;;;20.63;;
67278;SDS011;54193;53.746;10.058;2023-03-21T07:06:02;76.20;;;24.40;;
67278;SDS011;54193;53.746;10.058;2023-03-21T07:08:49;82.57;;;24.97;;
67278;SDS011;54193;53.746;10.058;2023-03-21T07:11:35;66.50;;;19.77;;
67278;SDS011;54193;53.746;10.058;2023-03-21T07:14:21;74.28;;;22.15;;
67278;SDS011;54193;53.746;10.058;2023-03-21T07:17:08;69.95;;;22.10;;
67278;SDS011;54193;53.746;10.058;2023-03-21T07:19:53;70.18;;;21.13;;
67278;SDS011;54193;53.746;10.058;2023-03-21T07:22:39;58.42;;;19.85;;
67278;SDS011;54193;53.746;10.058;2023-03-21T07:25:26;55.95;;;21.35;;
67278;SDS011;54193;53.746;10.058;2023-03-21T07:28:11;69.33;;;21.47;;
67278;SDS011;54193;53.746;10.058;2023-03-21T07:31:01;73.35;;;22.60;;
67278;SDS011;54193;53.746;10.058;2023-03-21T07:33:49;82.10;;;24.05;;
67278;SDS011;54193;53.746;10.058;2023-03-21T07:36:35;83.30;;;25.97;;
67278;SDS011;54193;53.746;10.058;2023-03-21T07:39:21;82.78;;;24.45;;
67278;SDS011;54193;53.746;10.058;2023-03-21T07:42:07;95.50;;;27.20;;
67278;SDS011;54193;53.746;10.058;2023-03-21T07:44:56;80.72;;;23.88;;
67278;SDS011;54193;53.746;10.058;2023-03-21T07:47:41;91.40;;;27.17;;
67278;SDS011;54193;53.746;10.058;2023-03-21T07:50:27;92.93;;;27.08;;
67278;SDS011;54193;53.746;10.058;2023-03-21T07:53:13;77.88;;;22.60;;
67278;SDS011;54193;53.746;10.058;2023-03-21T07:55:58;83.17;;;25.60;;
67278;SDS011;54193;53.746;10.058;2023-03-21T07:58:44;85.15;;;25.15;;
67278;SDS011;54193;53.746;10.058;2023-03-21T08:01:29;90.20;;;27.92;;
67278;SDS011;54193;53.746;10.058;2023-03-21T08:04:15;88.60;;;27.80;;
67278;SDS011;54193;53.746;10.058;2023-03-21T08:07:01;73.03;;;23.13;;
67278;SDS011;54193;53.746;10.058;2023-03-21T08:09:47;92.13;;;27.52;;
67278;SDS011;54193;53.746;10.058;2023-03-21T08:12:33;87.70;;;27.20;;
67278;SDS011;54193;53.746;10.058;2023-03-21T08:15:18;88.72;;;26.73;;
67278;SDS011;54193;53.746;10.058;2023-03-21T08:18:04;87.03;;;26.85;;
67278;SDS011;54193;53.746;10.058;2023-03-21T08:20:51;88.05;;;28.85;;
67278;SDS011;54193;53.746;10.058;2023-03-21T08:23:38;86.83;;;27.27;;
67278;SDS011;54193;53.746;10.058;2023-03-21T08:26:24;92.10;;;27.83;;
67278;SDS011;54193;53.746;10.058;2023-03-21T08:29:11;90.50;;;27.73;;
67278;SDS011;54193;53.746;10.058;2023-03-21T08:31:57;84.07;;;25.67;;
67278;SDS011;54193;53.746;10.058;2023-03-21T08:34:43;82.57;;;27.52;;
67278;SDS011;54193;53.746;10.058;2023-03-21T08:37:28;63.40;;;20.48;;
67278;SDS011;54193;53.746;10.058;2023-03-21T08:40:15;89.32;;;27.75;;
67278;SDS011;54193;53.746;10.058;2023-03-21T08:43:02;66.57;;;20.58;;
67278;SDS011;54193;53.746;10.058;2023-03-21T08:45:48;88.53;;;27.88;;
67278;SDS011;54193;53.746;10.058;2023-03-21T08:48:34;91.65;;;29.35;;
67278;SDS011;54193;53.746;10.058;2023-03-21T08:51:23;90.83;;;28.83;;
67278;SDS011;54193;53.746;10.058;2023-03-21T08:54:14;87.15;;;26.65;;
67278;SDS011;54193;53.746;10.058;2023-03-21T08:57:02;93.68;;;30.60;;
67278;SDS011;54193;53.746;10.058;2023-03-21T08:59:48;95.13;;;28.57;;
67278;SDS011;54193;53.746;10.058;2023-03-21T09:02:34;83.03;;;27.98;;
67278;SDS011;54193;53.746;10.058;2023-03-21T09:05:20;87.38;;;29.13;;
67278;SDS011;54193;53.746;10.058;2023-03-21T09:08:07;84.82;;;26.30;;
67278;SDS011;54193;53.746;10.058;2023-03-21T09:10:53;85.65;;;27.45;;
67278;SDS011;54193;53.746;10.058;2023-03-21T09:13:39;61.25;;;20.35;;
67278;SDS011;54193;53.746;10.058;2023-03-21T09:16:25;77.18;;;23.60;;
67278;SDS011;54193;53.746;10.058;2023-03-21T09:19:10;81.17;;;26.60;;
67278;SDS011;54193;53.746;10.058;2023-03-21T09:21:57;73.78;;;25.08;;
67278;SDS011;54193;53.746;10.058;2023-03-21T09:24:43;70.03;;;24.70;;
67278;SDS011;54193;53.746;10.058;2023-03-21T09:27:31;67.87;;;22.97;;
67278;SDS011;54193;53.746;10.058;2023-03-21T09:30:18;70.75;;;22.92;;
67278;SDS011;54193;53.746;10.058;2023-03-21T09:33:05;72.43;;;24.92;;
67278;SDS011;54193;53.746;10.058;2023-03-21T09:35:54;76.60;;;26.85;;
67278;SDS011;54193;53.746;10.058;2023-03-21T09:38:40;75.72;;;25.17;;
67278;SDS011;54193;53.746;10.058;2023-03-21T09:47:23;70.37;;;22.57;;
67278;SDS011;54193;53.746;10.058;2023-03-21T09:50:15;90.00;;;29.83;;
67278;SDS011;54193;53.746;10.058;2023-03-21T09:53:05;85.07;;;26.67;;
67278;SDS011;54193;53.746;10.058;2023-03-21T09:55:56;59.20;;;20.50;;
67278;SDS011;54193;53.746;10.058;2023-03-21T09:58:47;85.60;;;27.25;;
67278;SDS011;54193;53.746;10.058;2023-03-21T10:01:37;76.85;;;25.40;;
67278;SDS011;54193;53.746;10.058;2023-03-21T10:04:29;64.10;;;20.95;;
67278;SDS011;54193;53.746;10.058;2023-03-21T10:07:17;77.03;;;26.23;;
67278;SDS011;54193;53.746;10.058;2023-03-21T10:10:04;75.00;;;25.10;;
67278;SDS011;54193;53.746;10.058;2023-03-21T10:12:52;64.47;;;20.80;;
67278;SDS011;54193;53.746;10.058;2023-03-21T10:15:38;76.70;;;23.97;;
67278;SDS011;54193;53.746;10.058;2023-03-21T10:18:25;74.28;;;24.27;;
67278;SDS011;54193;53.746;10.058;2023-03-21T10:21:19;69.65;;;23.95;;
67278;SDS011;54193;53.746;10.058;2023-03-21T10:24:08;64.70;;;20.87;;
67278;SDS011;54193;53.746;10.058;2023-03-21T10:26:58;63.33;;;22.77;;
67278;SDS011;54193;53.746;10.058;2023-03-21T10:29:45;43.03;;;15.20;;
67278;SDS011;54193;53.746;10.058;2023-03-21T10:32:31;58.97;;;21.10;;
67278;SDS011;54193;53.746;10.058;2023-03-21T10:35:18;60.42;;;22.63;;
67278;SDS011;54193;53.746;10.058;2023-03-21T10:38:04;64.57;;;22.58;;
67278;SDS011;54193;53.746;10.058;2023-03-21T10:40:51;60.47;;;20.52;;
67278;SDS011;54193;53.746;10.058;2023-03-21T10:43:37;51.27;;;17.83;;
67278;SDS011;54193;53.746;10.058;2023-03-21T10:46:25;55.90;;;19.92;;
67278;SDS011;54193;53.746;10.058;2023-03-21T10:49:13;57.97;;;19.70;;
67278;SDS011;54193;53.746;10.058;2023-03-21T10:52:01;54.53;;;20.10;;
67278;SDS011;54193;53.746;10.058;2023-03-21T10:54:49;50.85;;;17.02;;
67278;SDS011;54193;53.746;10.058;2023-03-21T10:58:00;53.97;;;19.00;;
67278;SDS011;54193;53.746;10.058;2023-03-21T11:00:55;46.97;;;17.27;;
67278;SDS011;54193;53.746;10.058;2023-03-21T11:03:43;48.67;;;18.33;;
67278;SDS011;54193;53.746;10.058;2023-03-21T11:06:31;49.72;;;17.88;;
67278;SDS011;54193;53.746;10.058;2023-03-21T11:09:21;40.95;;;15.00;;
67278;SDS011;54193;53.746;10.058;2023-03-21T11:12:10;43.83;;;15.87;;
67278;SDS011;54193;53.746;10.058;2023-03-21T11:18:20;43.88;;;14.60;;
67278;SDS011;54193;53.746;10.058;2023-03-21T11:21:09;44.07;;;16.83;;
67278;SDS011;54193;53.746;10.058;2023-03-21T11:23:56;41.92;;;14.70;;
67278;SDS011;54193;53.746;10.058;2023-03-21T11:26:47;44.67;;;15.98;;
67278;SDS011;54193;53.746;10.058;2023-03-21T11:29:34;34.65;;;13.23;;
67278;SDS011;54193;53.746;10.058;2023-03-21T11:35:20;36.67;;;14.05;;
67278;SDS011;54193;53.746;10.058;2023-03-21T11:38:22;38.75;;;14.35;;
67278;SDS011;54193;53.746;10.058;2023-03-21T11:41:11;40.33;;;14.00;;
67278;SDS011;54193;53.746;10.058;2023-03-21T11:44:27;41.45;;;14.80;;
67278;SDS011;54193;53.746;10.058;2023-03-21T11:47:17;40.83;;;13.85;;
67278;SDS011;54193;53.746;10.058;2023-03-21T12:01:45;42.20;;;14.70;;
67278;SDS011;54193;53.746;10.058;2023-03-21T12:19:54;45.03;;;15.47;;
67278;SDS011;54193;53.746;10.058;2023-03-21T12:26:13;38.22;;;13.10;;
67278;SDS011;54193;53.746;10.058;2023-03-21T12:32:24;33.67;;;11.57;;
67278;SDS011;54193;53.746;10.058;2023-03-21T12:35:31;38.53;;;14.60;;
67278;SDS011;54193;53.746;10.058;2023-03-21T12:41:43;37.70;;;12.67;;
67278;SDS011;54193;53.746;10.058;2023-03-21T12:44:33;35.05;;;14.45;;
67278;SDS011;54193;53.746;10.058;2023-03-21T12:47:23;35.13;;;12.73;;
67278;SDS011;54193;53.746;10.058;2023-03-21T13:00:08;33.97;;;13.75;;
67278;SDS011;54193;53.746;10.058;2023-03-21T13:03:20;36.35;;;13.50;;
67278;SDS011;54193;53.746;10.058;2023-03-21T13:06:13;32.88;;;12.73;;
67278;SDS011;54193;53.746;10.058;2023-03-21T13:09:05;35.85;;;12.93;;
67278;SDS011;54193;53.746;10.058;2023-03-21T13:11:57;33.77;;;13.30;;
67278;SDS011;54193;53.746;10.058;2023-03-21T13:14:55;36.33;;;14.23;;
67278;SDS011;54193;53.746;10.058;2023-03-21T13:18:11;34.03;;;12.45;;
67278;SDS011;54193;53.746;10.058;2023-03-21T13:21:04;34.83;;;12.80;;
67278;SDS011;54193;53.746;10.058;2023-03-21T13:29:52;32.63;;;13.40;;
67278;SDS011;54193;53.746;10.058;2023-03-21T13:32:43;29.10;;;11.30;;
67278;SDS011;54193;53.746;10.058;2023-03-21T13:35:37;30.02;;;11.82;;
67278;SDS011;54193;53.746;10.058;2023-03-21T13:38:27;33.15;;;13.52;;
67278;SDS011;54193;53.746;10.058;2023-03-21T13:41:18;27.73;;;10.80;;
67278;SDS011;54193;53.746;10.058;2023-03-21T13:44:56;33.40;;;13.23;;
67278;SDS011;54193;53.746;10.058;2023-03-21T13:47:22;34.05;;;13.50;;
67278;SDS011;54193;53.746;10.058;2023-03-21T13:56:19;32.28;;;12.52;;
67278;SDS011;54193;53.746;10.058;2023-03-21T13:59:08;29.80;;;12.15;;
67278;SDS011;54193;53.746;10.058;2023-03-21T14:01:58;28.95;;;11.90;;
67278;SDS011;54193;53.746;10.058;2023-03-21T14:04:44;32.80;;;12.40;;
67278;SDS011;54193;53.746;10.058;2023-03-21T14:07:35;30.27;;;12.25;;
67278;SDS011;54193;53.746;10.058;2023-03-21T14:10:36;30.37;;;11.70;;
67278;SDS011;54193;53.746;10.058;2023-03-21T14:13:23;28.55;;;11.65;;
67278;SDS011;54193;53.746;10.058;2023-03-21T14:16:11;27.33;;;11.90;;
67278;SDS011;54193;53.746;10.058;2023-03-21T14:19:00;29.80;;;11.63;;
67278;SDS011;54193;53.746;10.058;2023-03-21T14:21:49;31.52;;;12.68;;
67278;SDS011;54193;53.746;10.058;2023-03-21T14:24:37;31.92;;;12.65;;
67278;SDS011;54193;53.746;10.058;2023-03-21T14:27:27;33.03;;;12.93;;
67278;SDS011;54193;53.746;10.058;2023-03-21T14:30:27;29.55;;;12.52;;
67278;SDS011;54193;53.746;10.058;2023-03-21T14:33:25;31.60;;;12.10;;
67278;SDS011;54193;53.746;10.058;2023-03-21T14:36:16;32.22;;;12.68;;
67278;SDS011;54193;53.746;10.058;2023-03-21T14:39:06;32.53;;;14.03;;
67278;SDS011;54193;53.746;10.058;2023-03-21T14:42:02;33.47;;;13.27;;
67278;SDS011;54193;53.746;10.058;2023-03-21T14:44:49;34.50;;;14.07;;
67278;SDS011;54193;53.746;10.058;2023-03-21T14:47:35;32.47;;;13.30;;
67278;SDS011;54193;53.746;10.058;2023-03-21T14:50:23;29.35;;;11.32;;
67278;SDS011;54193;53.746;10.058;2023-03-21T14:53:26;29.88;;;12.95;;
67278;SDS011;54193;53.746;10.058;2023-03-21T14:56:23;32.97;;;12.60;;
67278;SDS011;54193;53.746;10.058;2023-03-21T14:59:10;32.15;;;11.82;;
67278;SDS011;54193;53.746;10.058;2023-03-21T15:02:02;33.72;;;13.02;;
67278;SDS011;54193;53.746;10.058;2023-03-21T15:04:51;32.13;;;12.77;;
67278;SDS011;54193;53.746;10.058;2023-03-21T15:07:42;35.57;;;13.13;;
67278;SDS011;54193;53.746;10.058;2023-03-21T15:10:38;31.65;;;13.35;;
67278;SDS011;54193;53.746;10.058;2023-03-21T15:13:26;33.83;;;13.85;;
67278;SDS011;54193;53.746;10.058;2023-03-21T15:16:14;33.07;;;13.27;;
67278;SDS011;54193;53.746;10.058;2023-03-21T15:19:00;34.47;;;13.23;;
67278;SDS011;54193;53.746;10.058;2023-03-21T15:21:50;31.77;;;12.60;;
67278;SDS011;54193;53.746;10.058;2023-03-21T15:24:40;28.42;;;11.60;;
67278;SDS011;54193;53.746;10.058;2023-03-21T15:27:30;30.02;;;11.73;;
67278;SDS011;54193;53.746;10.058;2023-03-21T15:30:20;32.40;;;12.80;;
67278;SDS011;54193;53.746;10.058;2023-03-21T15:33:09;30.35;;;13.15;;
67278;SDS011;54193;53.746;10.058;2023-03-21T15:35:57;34.97;;;13.33;;
67278;SDS011;54193;53.746;10.058;2023-03-21T15:38:45;28.48;;;11.60;;
67278;SDS011;54193;53.746;10.058;2023-03-21T15:41:33;32.97;;;12.70;;
67278;SDS011;54193;53.746;10.058;2023-03-21T15:44:20;32.13;;;13.13;;
67278;SDS011;54193;53.746;10.058;2023-03-21T15:47:07;32.90;;;12.75;;
67278;SDS011;54193;53.746;10.058;2023-03-21T15:49:58;31.92;;;12.65;;
67278;SDS011;54193;53.746;10.058;2023-03-21T15:52:47;31.02;;;12.48;;
67278;SDS011;54193;53.746;10.058;2023-03-21T15:55:39;29.50;;;12.18;;
67278;SDS011;54193;53.746;10.058;2023-03-21T15:58:36;32.42;;;12.40;;
67278;SDS011;54193;53.746;10.058;2023-03-21T16:01:26;30.70;;;12.40;;
67278;SDS011;54193;53.746;10.058;2023-03-21T16:04:15;31.30;;;11.97;;
67278;SDS011;54193;53.746;10.058;2023-03-21T16:07:03;33.08;;;12.15;;
67278;SDS011;54193;53.746;10.058;2023-03-21T16:10:01;33.13;;;12.63;;
67278;SDS011;54193;53.746;10.058;2023-03-21T16:12:48;32.33;;;12.37;;
67278;SDS011;54193;53.746;10.058;2023-03-21T16:15:34;26.30;;;11.48;;
67278;SDS011;54193;53.746;10.058;2023-03-21T16:18:20;30.88;;;12.25;;
67278;SDS011;54193;53.746;10.058;2023-03-21T16:21:08;27.77;;;11.25;;
67278;SDS011;54193;53.746;10.058;2023-03-21T16:23:56;30.83;;;11.63;;
67278;SDS011;54193;53.746;10.058;2023-03-21T16:26:43;28.50;;;11.57;;
67278;SDS011;54193;53.746;10.058;2023-03-21T16:29:32;29.88;;;10.68;;
67278;SDS011;54193;53.746;10.058;2023-03-21T16:32:17;27.20;;;10.33;;
67278;SDS011;54193;53.746;10.058;2023-03-21T16:35:04;28.52;;;10.95;;
67278;SDS011;54193;53.746;10.058;2023-03-21T16:37:51;29.80;;;12.38;;
67278;SDS011;54193;53.746;10.058;2023-03-21T16:40:37;27.33;;;10.50;;
67278;SDS011;54193;53.746;10.058;2023-03-21T16:43:23;23.40;;;9.70;;
67278;SDS011;54193;53.746;10.058;2023-03-21T16:46:13;30.63;;;12.85;;
67278;SDS011;54193;53.746;10.058;2023-03-21T16:49:00;27.75;;;11.32;;
67278;SDS011;54193;53.746;10.058;2023-03-21T16:51:46;26.15;;;11.00;;
67278;SDS011;54193;53.746;10.058;2023-03-21T16:54:32;31.05;;;12.48;;
67278;SDS011;54193;53.746;10.058;2023-03-21T16:57:24;25.30;;;11.57;;
67278;SDS011;54193;53.746;10.058;2023-03-21T17:00:15;25.80;;;10.43;;
67278;SDS011;54193;53.746;10.058;2023-03-21T17:03:11;25.17;;;10.60;;
67278;SDS011;54193;53.746;10.058;2023-03-21T17:05:59;23.08;;;10.18;;
67278;SDS011;54193;53.746;10.058;2023-03-21T17:08:46;23.27;;;9.60;;
67278;SDS011;54193;53.746;10.058;2023-03-21T17:11:32;22.00;;;9.75;;
67278;SDS011;54193;53.746;10.058;2023-03-21T17:14:20;28.60;;;11.65;;
67278;SDS011;54193;53.746;10.058;2023-03-21T17:17:13;28.17;;;11.45;;
67278;SDS011;54193;53.746;10.058;2023-03-21T17:20:00;30.23;;;11.73;;
67278;SDS011;54193;53.746;10.058;2023-03-21T17:22:48;29.67;;;12.25;;
67278;SDS011;54193;53.746;10.058;2023-03-21T17:25:35;27.80;;;11.57;;
67278;SDS011;54193;53.746;10.058;2023-03-21T17:28:23;30.17;;;12.50;;
67278;SDS011;54193;53.746;10.058;2023-03-21T17:31:11;31.63;;;12.00;;
67278;SDS011;54193;53.746;10.058;2023-03-21T17:33:57;27.88;;;12.05;;
67278;SDS011;54193;53.746;10.058;2023-03-21T17:36:44;25.67;;;10.50;;
67278;SDS011;54193;53.746;10.058;2023-03-21T17:39:31;29.00;;;11.30;;
67278;SDS011;54193;53.746;10.058;2023-03-21T17:42:17;21.65;;;8.98;;
67278;SDS011;54193;53.746;10.058;2023-03-21T17:45:04;25.30;;;10.55;;
67278;SDS011;54193;53.746;10.058;2023-03-21T17:47:51;22.60;;;9.35;;
67278;SDS011;54193;53.746;10.058;2023-03-21T17:50:39;25.00;;;10.55;;
67278;SDS011;54193;53.746;10.058;2023-03-21T17:53:24;26.08;;;10.32;;